Time;durP1;ratioP1;P1;durP2;ratioP2;P2;SDS_P1;SDS_P2;PMS_P1;PMS_P2;Temp;Humidity;BMP_temperature;BMP_pressure;BME280_temperature;BME280_humidity;BME280_pressure;Samples;Min_cycle;Max_cycle;Signal;HPM_P1;HPM_P2
2023/03/09 00:05:34;;;;;;;16.50;10.00;;;;;;;8.55;85.31;99909.95;102684;1291;615348;-83
2023/03/09 00:08:02;;;;;;;18.30;10.70;;;;;;;8.62;85.25;99913.13;106509;1268;61619;-84
2023/03/09 00:10:30;;;;;;;17.40;10.80;;;;;;;8.69;84.90;99913.05;108282;1269;60101;-84
2023/03/09 00:12:57;;;;;;;18.10;10.50;;;;;;;8.72;84.54;99916.17;107681;1269;72036;-86
2023/03/09 00:15:24;;;;;;;15.20;10.30;;;;;;;8.74;84.18;99923.69;105023;1269;62794;-86
2023/03/09 00:17:52;;;;;;;24.90;12.60;;;;;;;8.76;84.09;99920.94;104491;1269;613051;-85
2023/03/09 00:20:19;;;;;;;16.00;10.00;;;;;;;8.80;84.01;99906.09;105461;1260;62412;-86
2023/03/09 00:29:24;;;;;;;19.50;11.30;;;;;;;8.83;83.66;99903.79;105006;1279;63878;-86
2023/03/09 00:31:52;;;;;;;19.70;12.90;;;;;;;8.87;83.71;99902.66;104186;1279;73611;-86
2023/03/09 00:34:23;;;;;;;20.50;12.70;;;;;;;8.89;83.37;99896.39;104867;1277;63051;-85
2023/03/09 00:36:50;;;;;;;20.90;12.40;;;;;;;8.90;83.31;99894.98;104517;1280;61703;-87
2023/03/09 00:39:18;;;;;;;17.20;11.30;;;;;;;8.89;83.32;99899.21;104280;1274;73034;-86
2023/03/09 00:45:13;;;;;;;24.00;13.80;;;;;;;8.86;83.62;99878.98;84618;1277;976496;31
2023/03/09 00:47:41;;;;;;;24.60;13.90;;;;;;;8.83;83.72;99876.25;107656;1278;60404;-95
2023/03/09 00:50:16;;;;;;;20.00;15.30;;;;;;;8.81;83.87;99876.75;108133;1271;60611;-93
2023/03/09 00:52:49;;;;;;;20.60;14.90;;;;;;;8.78;83.85;99869.63;108469;1271;73572;-95
2023/03/09 00:55:20;;;;;;;22.90;15.50;;;;;;;8.73;83.92;99869.20;106227;1268;63941;-96
2023/03/09 00:57:50;;;;;;;21.60;14.80;;;;;;;8.67;84.02;99874.30;106169;1268;74075;-96
2023/03/09 01:00:20;;;;;;;20.70;15.00;;;;;;;8.61;84.32;99868.59;106164;1269;60947;-95
2023/03/09 01:02:47;;;;;;;22.00;15.20;;;;;;;8.58;84.64;99864.64;107827;1267;60208;-94
2023/03/09 01:05:17;;;;;;;20.10;15.00;;;;;;;8.53;84.91;99866.30;108643;1268;71943;-94
2023/03/09 01:07:52;;;;;;;27.00;16.60;;;;;;;8.50;85.37;99870.83;106764;1268;62690;-94
2023/03/09 01:10:21;;;;;;;30.50;17.10;;;;;;;8.49;85.43;99867.98;107482;1267;72476;-96
2023/03/09 01:13:10;;;;;;;26.60;19.20;;;;;;;8.41;85.45;99855.41;106402;1266;63541;-95
2023/03/09 01:15:39;;;;;;;34.20;18.30;;;;;;;8.35;85.67;99860.27;106410;1271;59835;-96
2023/03/09 01:18:10;;;;;;;28.90;19.10;;;;;;;8.34;85.69;99862.41;106511;1270;72016;-96
2023/03/09 01:20:39;;;;;;;22.40;17.00;;;;;;;8.33;85.95;99852.56;106513;1272;64535;-94
2023/03/09 01:23:18;;;;;;;25.30;16.20;;;;;;;8.28;86.25;99854.61;107525;1270;73118;-95
2023/03/09 01:25:48;;;;;;;28.10;16.50;;;;;;;8.23;86.61;99858.05;107052;1274;60301;-96
2023/03/09 01:28:17;;;;;;;37.80;19.20;;;;;;;8.16;86.91;99849.59;105496;1279;61435;-96
2023/03/09 01:30:45;;;;;;;29.10;18.70;;;;;;;8.14;87.26;99840.89;106484;1274;72873;-94
2023/03/09 01:33:15;;;;;;;28.60;18.00;;;;;;;8.03;87.33;99852.50;106795;1273;61984;-94
2023/03/09 01:35:43;;;;;;;31.80;17.70;;;;;;;7.99;87.51;99857.65;106907;1273;72621;-94
2023/03/09 01:38:11;;;;;;;27.40;17.20;;;;;;;7.96;87.67;99849.63;105999;1273;63431;-96
2023/03/09 01:40:46;;;;;;;27.00;17.70;;;;;;;7.91;87.83;99851.19;106650;1276;59629;-95
2023/03/09 01:43:23;;;;;;;27.30;17.60;;;;;;;7.86;88.38;99855.96;106138;1276;72956;-93
2023/03/09 01:46:15;;;;;;;23.30;18.80;;;;;;;7.80;88.89;99856.51;106280;1279;65046;-94
2023/03/09 01:48:54;;;;;;;26.80;18.20;;;;;;;7.78;89.30;99857.00;106345;1273;73134;-95
2023/03/09 01:51:29;;;;;;;28.50;18.40;;;;;;;7.75;89.57;99854.25;105682;1275;60780;-95
2023/03/09 01:54:00;;;;;;;28.00;19.60;;;;;;;7.69;89.79;99851.09;106130;1276;60360;-95
2023/03/09 01:56:29;;;;;;;29.50;18.40;;;;;;;7.61;90.20;99851.05;105524;1279;72461;-95
2023/03/09 01:59:04;;;;;;;26.20;18.20;;;;;;;7.59;90.44;99858.31;105990;1270;63975;-95
2023/03/09 02:01:47;;;;;;;30.70;18.60;;;;;;;7.53;91.07;99852.43;105030;1276;75327;-96
2023/03/09 02:04:21;;;;;;;28.40;19.00;;;;;;;7.50;91.56;99851.74;106396;1270;59599;-95
2023/03/09 02:06:50;;;;;;;34.10;20.40;;;;;;;7.45;92.17;99841.72;107216;1270;60564;-96
2023/03/09 02:09:27;;;;;;;30.90;21.40;;;;;;;7.40;92.49;99831.80;105965;1270;72194;-96
2023/03/09 02:12:04;;;;;;;29.50;19.30;;;;;;;7.41;92.83;99829.45;106006;1271;64438;-95
2023/03/09 02:14:33;;;;;;;37.00;20.00;;;;;;;7.37;93.16;99826.27;105311;1271;74416;-96
2023/03/09 02:17:01;;;;;;;29.00;18.00;;;;;;;7.37;93.35;99834.26;105668;1276;62166;-95
2023/03/09 02:20:02;;;;;;;28.30;19.70;;;;;;;7.35;93.50;99835.77;106348;1267;60657;-95
2023/03/09 02:22:54;;;;;;;26.80;20.40;;;;;;;7.33;94.08;99837.45;107845;1267;73264;-95
2023/03/09 02:25:41;;;;;;;31.20;20.90;;;;;;;7.32;94.34;99845.83;108394;1273;64819;-94
2023/03/09 02:28:11;;;;;;;34.60;23.20;;;;;;;7.32;94.55;99845.46;108242;1270;71193;-96
2023/03/09 02:30:51;;;;;;;35.50;21.50;;;;;;;7.32;94.26;99842.21;107972;1273;61869;-95
2023/03/09 02:33:27;;;;;;;30.00;21.60;;;;;;;7.31;94.37;99835.45;107215;1267;59699;-94
2023/03/09 02:36:02;;;;;;;31.50;21.80;;;;;;;7.30;94.45;99838.48;106847;1273;73178;-96
2023/03/09 02:38:32;;;;;;;34.30;22.80;;;;;;;7.26;94.61;99840.80;106840;1267;63361;-95
2023/03/09 02:41:21;;;;;;;35.60;22.40;;;;;;;7.22;94.81;99838.45;108186;1267;72018;-96
2023/03/09 02:43:50;;;;;;;34.70;22.50;;;;;;;7.19;95.03;99839.48;108664;1267;61558;-94
2023/03/09 02:46:20;;;;;;;38.70;22.90;;;;;;;7.14;95.48;99839.59;108730;1267;61374;-96
2023/03/09 02:48:48;;;;;;;38.70;23.30;;;;;;;7.14;95.55;99844.46;108599;1267;73136;-95
2023/03/09 02:51:21;;;;;;;30.20;22.10;;;;;;;7.14;95.51;99842.36;108348;1267;63176;-94
2023/03/09 02:53:50;;;;;;;32.60;23.70;;;;;;;7.13;95.58;99840.70;108739;1267;72998;-92
2023/03/09 02:56:30;;;;;;;36.60;25.20;;;;;;;7.18;95.67;99848.75;106992;1272;63118;-95
2023/03/09 02:59:01;;;;;;;38.50;26.60;;;;;;;7.20;95.80;99852.42;106348;1267;59196;-95
2023/03/09 03:01:50;;;;;;;37.90;26.90;;;;;;;7.22;95.99;99853.34;106645;1267;75476;-95
2023/03/09 03:04:17;;;;;;;36.30;28.30;;;;;;;7.23;96.19;99853.29;105976;1267;63843;-96
2023/03/09 03:06:50;;;;;;;36.30;25.10;;;;;;;7.24;96.32;99853.42;106525;1267;73435;-96
2023/03/09 03:09:17;;;;;;;29.50;22.90;;;;;;;7.31;96.37;99857.92;107123;1267;60849;-96
2023/03/09 03:11:47;;;;;;;33.20;22.10;;;;;;;7.34;96.38;99854.27;106687;1269;60627;-96
2023/03/09 03:14:27;;;;;;;29.00;21.40;;;;;;;7.39;96.44;99849.27;106784;1267;72186;-96
2023/03/09 03:17:00;;;;;;;30.40;22.00;;;;;;;7.42;96.44;99844.84;107204;1269;62036;-96
2023/03/09 03:19:32;;;;;;;29.40;22.20;;;;;;;7.50;96.52;99850.50;107908;1267;72689;-96
2023/03/09 03:22:22;;;;;;;38.00;25.00;;;;;;;7.57;96.41;99851.50;108697;1267;63496;-94
2023/03/09 03:24:51;;;;;;;35.70;22.70;;;;;;;7.64;96.15;99848.25;108316;1267;60471;-94
2023/03/09 03:27:19;;;;;;;32.80;22.40;;;;;;;7.69;95.84;99839.64;108725;1266;71868;-96
2023/03/09 03:29:52;;;;;;;30.90;23.10;;;;;;;7.76;95.67;99842.54;107511;1267;64330;-93
2023/03/09 03:32:22;;;;;;;37.80;24.60;;;;;;;7.78;95.42;99841.52;108274;1267;73637;-94
2023/03/09 03:34:53;;;;;;;34.60;22.90;;;;;;;7.79;95.57;99838.69;105837;1270;59696;-95
2023/03/09 03:37:23;;;;;;;34.70;23.50;;;;;;;7.79;95.56;99836.05;106058;1275;61339;-95
2023/03/09 03:39:52;;;;;;;36.00;23.60;;;;;;;7.81;95.48;99839.61;106035;1267;71194;-96
2023/03/09 03:42:24;;;;;;;37.40;23.30;;;;;;;7.82;95.35;99839.86;105747;1273;63781;-96
2023/03/09 03:44:52;;;;;;;32.90;21.80;;;;;;;7.84;95.31;99844.62;105789;1270;73631;-96
2023/03/09 03:47:20;;;;;;;37.50;23.10;;;;;;;7.84;95.14;99848.42;105797;1273;62737;-96
2023/03/09 03:49:47;;;;;;;31.20;21.30;;;;;;;7.85;95.19;99850.50;105891;1267;59773;-96
2023/03/09 03:52:16;;;;;;;36.00;22.00;;;;;;;7.84;95.35;99846.17;105967;1267;74513;-94
2023/03/09 03:54:44;;;;;;;35.50;22.80;;;;;;;7.86;95.40;99850.77;105406;1275;62953;-96
2023/03/09 03:57:13;;;;;;;35.10;23.40;;;;;;;7.86;95.26;99845.04;106094;1270;73736;-96
2023/03/09 03:59:41;;;;;;;32.40;20.40;;;;;;;7.84;95.06;99843.23;105749;1267;60382;-94
2023/03/09 04:02:09;;;;;;;31.70;20.60;;;;;;;7.86;94.86;99847.67;105914;1267;61121;-96
2023/03/09 04:04:39;;;;;;;37.70;21.40;;;;;;;7.81;94.60;99841.47;106914;1268;72217;-96
2023/03/09 04:07:22;;;;;;;30.80;19.30;;;;;;;7.84;94.71;99846.20;108088;1267;63633;-94
2023/03/09 04:09:52;;;;;;;25.30;18.40;;;;;;;7.85;94.75;99842.33;108385;1267;73337;-94
2023/03/09 04:12:39;;;;;;;29.80;20.20;;;;;;;7.83;94.60;99832.34;108498;1261;59410;-94
2023/03/09 04:15:25;;;;;;;31.30;19.50;;;;;;;7.84;94.37;99835.03;108044;1272;59026;-96
2023/03/09 04:18:09;;;;;;;30.90;20.10;;;;;;;7.82;94.42;99836.20;108314;1274;72964;-96
2023/03/09 04:21:08;;;;;;;20.60;15.10;;;;;;;7.83;94.02;99830.77;108022;1262;62954;31
2023/03/09 04:25:37;;;;;;;24.30;17.80;;;;;;;7.84;94.03;99826.02;108620;1260;616092;-96
2023/03/09 04:34:57;;;;;;;23.40;14.40;;;;;;;7.91;93.83;99826.80;111043;1244;71521;-95
2023/03/09 04:38:38;;;;;;;21.00;14.70;;;;;;;7.89;93.47;99820.64;107494;1236;6146893;-96
2023/03/09 04:41:18;;;;;;;23.50;15.30;;;;;;;7.90;93.49;99819.56;110852;1237;61118;-96
2023/03/09 04:44:07;;;;;;;23.10;16.20;;;;;;;7.95;93.67;99821.01;110131;1232;61428;-95
2023/03/09 04:46:39;;;;;;;21.20;15.60;;;;;;;7.98;93.61;99817.00;110404;1238;72626;-96
2023/03/09 04:49:14;;;;;;;25.90;16.30;;;;;;;7.98;93.24;99813.17;111191;1232;62797;-96
2023/03/09 04:51:44;;;;;;;25.00;16.80;;;;;;;7.89;93.12;99801.48;110776;1231;71878;-96
2023/03/09 04:54:14;;;;;;;19.70;14.80;;;;;;;7.88;93.24;99795.98;110809;1232;63874;-95
2023/03/09 04:56:50;;;;;;;22.00;14.00;;;;;;;7.96;93.43;99796.04;111100;1240;59582;-95
2023/03/09 04:59:22;;;;;;;20.30;14.30;;;;;;;8.04;93.57;99794.16;110771;1232;71560;-96
2023/03/09 05:01:53;;;;;;;25.30;17.30;;;;;;;8.10;93.50;99793.07;111477;1231;64024;-96
2023/03/09 05:04:45;;;;;;;33.10;21.40;;;;;;;8.14;93.36;99795.61;111771;1238;74892;-95
2023/03/09 05:07:17;;;;;;;30.30;20.50;;;;;;;8.19;92.97;99807.86;111057;1241;60480;-96
2023/03/09 05:10:09;;;;;;;28.20;19.00;;;;;;;8.14;92.81;99809.19;111078;1240;59815;-95
2023/03/09 05:13:05;;;;;;;25.80;17.60;;;;;;;8.12;92.82;99814.75;111388;1238;73859;-96
2023/03/09 05:16:25;;;;;;;28.40;18.50;;;;;;;8.09;92.78;99806.18;111177;1235;64637;-96
2023/03/09 05:18:59;;;;;;;30.00;21.10;;;;;;;8.09;92.70;99806.17;111859;1234;73681;-95
2023/03/09 05:22:07;;;;;;;24.90;16.90;;;;;;;8.08;93.24;99791.98;111800;1234;59599;-94
2023/03/09 05:24:59;;;;;;;24.00;17.60;;;;;;;8.05;93.06;99784.16;111865;1240;60262;-95
2023/03/09 05:27:52;;;;;;;43.60;31.90;;;;;;;8.05;92.91;99783.98;111641;1244;74077;-96
2023/03/09 05:34:53;;;;;;;62.60;39.50;;;;;;;7.89;93.27;99778.34;111991;1235;71080;-96
2023/03/09 05:37:37;;;;;;;;;;;;;;;7.85;93.73;99775.64;112188;1235;62980;-96
2023/03/09 05:40:44;;;;;;;91.70;62.00;;;;;;;7.85;94.10;99770.77;112495;1233;59810;-95
2023/03/09 05:43:35;;;;;;;64.20;45.30;;;;;;;7.81;94.52;99766.52;111839;1238;74291;-95
2023/03/09 05:46:14;;;;;;;92.80;66.60;;;;;;;7.80;94.44;99768.12;110340;1234;65463;-95
2023/03/09 05:48:48;;;;;;;72.30;55.00;;;;;;;7.78;94.48;99769.65;110687;1234;72434;-94
2023/03/09 05:51:44;;;;;;;56.60;40.10;;;;;;;7.74;94.46;99775.98;111620;1232;61217;-96
2023/03/09 05:54:37;;;;;;;56.00;35.80;;;;;;;7.76;94.54;99786.15;110969;1232;60095;-95
2023/03/09 05:57:29;;;;;;;48.20;30.90;;;;;;;7.75;95.07;99789.17;111789;1232;73360;-95
2023/03/09 06:00:56;;;;;;;29.90;20.90;;;;;;;7.70;95.52;99792.79;112042;1232;63316;-95
2023/03/09 06:04:20;;;;;;;31.10;20.20;;;;;;;7.63;96.05;99789.51;111715;1232;73822;-94
2023/03/09 06:07:55;;;;;;;44.20;32.30;;;;;;;7.62;96.50;99788.70;111816;1235;60016;-95
2023/03/09 06:11:08;;;;;;;32.50;22.30;;;;;;;7.63;96.54;99786.77;111515;1234;60219;-96
2023/03/09 06:19:09;;;;;;;26.10;17.60;;;;;;;7.67;96.79;99779.92;112393;1235;63345;-95
2023/03/09 06:32:56;;;;;;;34.00;22.80;;;;;;;7.67;97.09;99782.85;112252;1233;71569;-95
2023/03/09 06:36:29;;;;;;;32.10;20.40;;;;;;;7.69;96.94;99785.51;111473;1241;61602;-95
2023/03/09 06:39:44;;;;;;;29.60;19.20;;;;;;;7.74;97.24;99790.09;111407;1241;73854;-94
2023/03/09 06:47:08;;;;;;;30.20;19.10;;;;;;;8.01;96.86;99800.62;110931;1244;60651;-94
2023/03/09 06:50:32;;;;;;;30.70;20.90;;;;;;;8.10;96.08;99796.75;110535;1247;71728;-94
2023/03/09 06:57:57;;;;;;;27.00;16.40;;;;;;;8.31;94.80;99803.90;111492;1235;74650;-94
2023/03/09 07:05:21;;;;;;;31.20;21.00;;;;;;;8.45;94.57;99797.85;112279;1235;59022;-96
2023/03/09 07:08:40;;;;;;;27.70;18.80;;;;;;;8.60;94.19;99801.25;111070;1234;74182;-93
2023/03/09 07:11:39;;;;;;;26.10;17.90;;;;;;;8.66;93.33;99798.03;111761;1234;65535;-93
2023/03/09 07:14:47;;;;;;;23.80;15.80;;;;;;;8.68;92.83;99796.21;111190;1236;73596;-94
2023/03/09 07:17:48;;;;;;;24.40;14.80;;;;;;;8.78;92.60;99807.05;111793;1234;62588;-96
2023/03/09 07:27:36;;;;;;;25.80;18.50;;;;;;;9.29;91.10;99813.93;112225;1232;64996;-95
2023/03/09 07:31:20;;;;;;;26.80;17.60;;;;;;;9.44;90.22;99817.30;112254;1234;71111;-93
2023/03/09 07:34:38;;;;;;;23.90;16.70;;;;;;;9.53;89.37;99821.03;111560;1232;62909;-95
2023/03/09 07:38:59;;;;;;;27.30;18.40;;;;;;;9.62;88.54;99828.27;112423;1236;60055;-94
2023/03/09 07:43:21;;;;;;;22.30;17.40;;;;;;;9.80;87.85;99829.60;112376;1234;72407;-94
2023/03/09 07:47:47;;;;;;;29.50;17.40;;;;;;;10.02;86.61;99828.46;112031;1235;63898;-95
2023/03/09 07:54:16;;;;;;;24.80;17.70;;;;;;;10.11;85.34;99823.95;111385;1233;980812;-96
2023/03/09 08:00:29;;;;;;;22.10;16.30;;;;;;;10.40;83.55;99819.64;112520;1233;71596;-94
2023/03/09 08:04:00;;;;;;;24.60;15.90;;;;;;;10.89;83.25;99816.44;112424;1234;62318;-95
2023/03/09 08:06:57;;;;;;;19.30;15.10;;;;;;;11.73;81.22;99819.73;111157;1238;72095;-92
2023/03/09 08:09:28;;;;;;;21.90;15.90;;;;;;;12.42;76.92;99821.97;111198;1247;59535;-93
2023/03/09 08:12:01;;;;;;;25.20;16.60;;;;;;;13.08;73.92;99814.83;111678;1241;61034;-94
2023/03/09 08:14:49;;;;;;;21.20;15.50;;;;;;;13.64;71.33;99817.16;111806;1231;74060;-93
2023/03/09 08:22:31;;;;;;;17.60;15.40;;;;;;;14.44;67.37;99819.14;112274;1236;72348;-93
2023/03/09 08:25:08;;;;;;;21.60;15.60;;;;;;;14.74;65.37;99820.20;111737;1237;59084;-92
2023/03/09 08:27:46;;;;;;;19.90;14.80;;;;;;;15.11;64.13;99818.57;111992;1237;59243;-95
2023/03/09 08:31:32;;;;;;;17.50;15.00;;;;;;;15.70;62.95;99818.90;112296;1232;74128;-95
2023/03/09 08:35:43;;;;;;;17.20;15.20;;;;;;;16.82;58.28;99813.45;111827;1231;62506;31
2023/03/09 08:39:07;;;;;;;18.30;15.00;;;;;;;17.76;53.84;99800.12;111950;1231;72336;-96
2023/03/09 08:42:23;;;;;;;19.90;14.30;;;;;;;18.13;52.40;99791.63;112196;1232;59610;-96
2023/03/09 08:46:07;;;;;;;17.20;13.70;;;;;;;18.61;51.16;99790.34;110905;1239;59640;-96
2023/03/09 08:48:43;;;;;;;16.60;13.50;;;;;;;19.12;49.48;99787.44;110479;1239;73915;-96
2023/03/09 08:51:44;;;;;;;19.70;13.60;;;;;;;19.50;48.18;99781.85;111502;1239;62155;-95
2023/03/09 08:54:29;;;;;;;16.40;12.90;;;;;;;19.75;46.63;99777.88;110223;1239;72396;-94
2023/03/09 08:57:02;;;;;;;15.50;12.30;;;;;;;19.78;45.73;99771.55;110900;1239;60197;-95
2023/03/09 08:59:52;;;;;;;15.40;13.30;;;;;;;19.66;46.00;99757.14;110803;1239;59897;-94
2023/03/09 09:02:20;;;;;;;16.50;12.20;;;;;;;19.80;46.25;99753.02;110813;1239;72156;-94
2023/03/09 09:04:51;;;;;;;17.30;12.50;;;;;;;20.10;44.96;99741.77;110902;1239;63624;-95
2023/03/09 09:07:24;;;;;;;13.70;11.70;;;;;;;20.26;44.37;99735.56;110950;1239;71366;-94
2023/03/09 09:10:10;;;;;;;16.30;12.30;;;;;;;20.42;44.60;99726.26;110645;1239;59648;-92
2023/03/09 09:13:01;;;;;;;12.50;11.10;;;;;;;20.74;43.76;99714.67;110698;1244;60538;-96
2023/03/09 09:15:33;;;;;;;15.20;12.60;;;;;;;21.04;43.48;99711.52;110803;1236;72849;-94
2023/03/09 09:18:03;;;;;;;14.00;11.40;;;;;;;21.30;42.58;99700.52;111151;1236;62630;-94
2023/03/09 09:20:38;;;;;;;18.50;13.50;;;;;;;21.52;42.03;99705.07;111152;1236;72853;-92
2023/03/09 09:23:29;;;;;;;12.30;10.90;;;;;;;21.64;41.20;99699.27;111649;1232;60263;-93
2023/03/09 09:26:26;;;;;;;14.90;11.00;;;;;;;21.64;41.04;99696.69;111607;1234;60097;-94
2023/03/09 09:28:55;;;;;;;12.10;10.80;;;;;;;21.84;41.02;99702.09;110740;1231;72358;-91
2023/03/09 09:31:25;;;;;;;15.80;10.60;;;;;;;22.06;40.29;99706.52;112603;1231;62015;-94
2023/03/09 09:34:02;;;;;;;15.30;11.00;;;;;;;22.19;40.04;99705.83;111275;1231;72579;-95
2023/03/09 09:40:47;;;;;;;10.40;8.90;;;;;;;22.53;38.22;99695.70;111476;1233;60360;-96
2023/03/09 09:43:31;;;;;;;11.20;8.70;;;;;;;22.49;37.80;99694.39;111037;1234;74704;-95
2023/03/09 09:46:25;;;;;;;10.70;9.10;;;;;;;22.57;37.93;99690.96;112123;1234;62446;-93
2023/03/09 09:49:52;;;;;;;11.70;9.70;;;;;;;22.66;38.24;99685.15;111695;1238;71735;-94
2023/03/09 09:53:31;;;;;;;22.00;10.60;;;;;;;22.89;38.16;99679.85;111223;1241;60070;-92
2023/03/09 09:56:59;;;;;;;11.40;9.20;;;;;;;23.17;36.92;99679.98;111494;1241;60449;-94
2023/03/09 09:59:40;;;;;;;13.10;9.50;;;;;;;23.10;36.44;99680.75;111648;1241;72572;-91
2023/03/09 10:02:56;;;;;;;13.70;10.70;;;;;;;23.15;36.31;99676.30;111692;1241;62698;-94
2023/03/09 10:06:29;;;;;;;10.60;9.30;;;;;;;23.19;36.37;99670.98;111409;1240;73070;-96
2023/03/09 10:09:53;;;;;;;10.40;8.20;;;;;;;23.13;35.86;99669.70;111121;1246;59132;-96
2023/03/09 10:13:52;;;;;;;8.90;7.30;;;;;;;23.02;35.61;99668.03;110993;1251;58946;-96
2023/03/09 10:17:27;;;;;;;13.70;6.90;;;;;;;23.06;35.10;99662.88;112500;1233;72434;31
2023/03/09 10:21:02;;;;;;;8.70;7.20;;;;;;;22.99;34.81;99654.34;112524;1232;63976;-92
2023/03/09 10:24:39;;;;;;;10.00;8.40;;;;;;;23.10;35.55;99655.54;112412;1231;72186;-95
2023/03/09 10:28:32;;;;;;;9.40;6.40;;;;;;;23.37;35.57;99652.78;112527;1231;59289;-92
2023/03/09 10:32:30;;;;;;;7.20;6.50;;;;;;;23.27;34.24;99650.73;112238;1234;58845;31
2023/03/09 10:37:01;;;;;;;7.50;6.80;;;;;;;23.12;34.45;99646.58;112153;1238;75228;31
2023/03/09 10:40:17;;;;;;;12.10;6.60;;;;;;;22.83;34.97;99644.02;112031;1237;64580;-95
2023/03/09 10:42:46;;;;;;;6.40;5.80;;;;;;;22.77;35.59;99640.21;110766;1235;72528;-96
2023/03/09 10:45:27;;;;;;;10.90;5.90;;;;;;;22.97;35.40;99632.65;110988;1233;60298;-96
2023/03/09 10:52:01;;;;;;;9.70;4.80;;;;;;;23.54;32.84;99624.37;111558;1232;72306;-95
2023/03/09 10:55:46;;;;;;;5.00;3.90;;;;;;;23.56;32.45;99618.36;111233;1234;63524;-95
2023/03/09 10:58:39;;;;;;;6.00;4.10;;;;;;;23.58;32.09;99614.41;111035;1238;71843;-96
2023/03/09 11:02:05;;;;;;;11.50;4.30;;;;;;;23.64;32.23;99606.31;111156;1238;60757;-96
2023/03/09 11:05:31;;;;;;;17.60;11.90;;;;;;;23.76;30.69;99602.74;112331;1233;59521;-95
2023/03/09 11:08:41;;;;;;;9.20;5.80;;;;;;;23.70;31.00;99602.41;110768;1235;72433;-95
2023/03/09 11:11:31;;;;;;;7.30;4.30;;;;;;;23.47;29.82;99604.83;111048;1234;64733;-95
2023/03/09 11:14:01;;;;;;;4.90;3.40;;;;;;;23.18;30.50;99589.85;110418;1234;72603;-94
2023/03/09 11:17:34;;;;;;;3.80;2.50;;;;;;;22.88;30.28;99589.73;111888;1237;59118;31
2023/03/09 11:23:56;;;;;;;5.00;2.60;;;;;;;22.44;30.72;99584.51;112401;1231;72246;-92
2023/03/09 11:26:40;;;;;;;4.30;2.60;;;;;;;22.56;30.79;99578.52;110746;1231;64612;-95
2023/03/09 11:29:48;;;;;;;4.30;2.90;;;;;;;22.70;31.10;99573.30;110942;1235;72084;-92
2023/03/09 11:35:38;;;;;;;4.20;2.60;;;;;;;22.84;29.91;99570.00;111873;1232;59766;-95
2023/03/09 11:38:52;;;;;;;4.70;3.10;;;;;;;22.51;30.21;99559.54;111409;1232;74333;-93
2023/03/09 11:41:25;;;;;;;5.80;3.60;;;;;;;22.25;30.59;99551.93;110959;1231;63549;-94
2023/03/09 11:48:42;;;;;;;10.20;3.80;;;;;;;21.25;32.59;99548.70;111397;1241;61289;-94
2023/03/09 11:51:50;;;;;;;5.00;3.10;;;;;;;20.82;32.84;99549.13;111521;1242;62047;-93
2023/03/09 11:54:54;;;;;;;4.90;3.10;;;;;;;20.59;33.50;99550.30;110941;1242;73727;-95
2023/03/09 11:58:17;;;;;;;7.10;3.00;;;;;;;20.44;33.75;99543.27;112379;1232;63076;-94
2023/03/09 12:04:01;;;;;;;6.00;3.90;;;;;;;20.31;34.05;99527.97;112188;1232;58998;-92
2023/03/09 12:07:23;;;;;;;3.90;3.30;;;;;;;20.28;34.05;99529.39;111979;1232;59994;-96
2023/03/09 12:10:20;;;;;;;6.00;3.30;;;;;;;20.20;34.46;99526.65;112452;1232;73542;-95
2023/03/09 12:18:25;;;;;;;11.10;7.20;;;;;;;19.84;34.65;99522.02;111027;1235;74195;-95
2023/03/09 12:23:28;;;;;;;15.60;9.20;;;;;;;19.81;34.74;99519.02;107024;1279;613209;31
2023/03/09 12:39:22;;;;;;;3.50;3.20;;;;;;;19.26;35.11;99516.77;108051;1266;59639;-95
2023/03/09 12:42:39;;;;;;;5.80;3.80;;;;;;;19.08;35.50;99512.95;108459;1270;60160;-94
2023/03/09 12:45:45;;;;;;;4.30;3.40;;;;;;;18.94;35.80;99509.86;106551;1273;1379004;-95
2023/03/09 12:49:33;;;;;;;5.00;3.00;;;;;;;18.81;35.87;99503.05;107232;1270;61659;-96
2023/03/09 13:06:10;;;;;;;6.60;3.40;;;;;;;18.25;36.52;99488.74;108853;1257;72688;-96
2023/03/09 13:13:34;;;;;;;7.10;4.20;;;;;;;18.06;36.88;99486.02;108382;1263;73026;-94
2023/03/09 13:35:24;;;;;;;12.70;7.10;;;;;;;17.80;37.43;99462.63;108797;1257;59513;-90
2023/03/09 13:39:05;;;;;;;9.60;4.00;;;;;;;17.75;37.23;99457.48;108118;1271;60242;-96
2023/03/09 13:42:30;;;;;;;8.80;5.00;;;;;;;17.67;37.21;99450.83;107950;1273;71781;-95
2023/03/09 13:46:26;;;;;;;11.80;4.10;;;;;;;17.62;37.08;99447.00;107458;1273;61915;-96
2023/03/09 13:49:18;;;;;;;7.20;4.10;;;;;;;17.50;37.36;99443.11;107031;1279;73798;-93
2023/03/09 13:52:34;;;;;;;9.30;4.20;;;;;;;17.42;37.61;99442.89;106381;1281;60320;-95
2023/03/09 14:02:53;;;;;;;9.00;4.20;;;;;;;17.30;38.81;99430.75;108459;1260;64374;-95
2023/03/09 14:06:55;;;;;;;15.90;4.70;;;;;;;17.20;39.14;99422.73;107755;1272;71373;-95
2023/03/09 14:09:49;;;;;;;8.00;3.40;;;;;;;17.11;39.46;99422.84;108667;1268;60264;-93
2023/03/09 14:12:37;;;;;;;4.50;2.70;;;;;;;17.04;39.42;99415.40;108758;1268;60226;-93
2023/03/09 14:19:21;;;;;;;6.00;3.50;;;;;;;16.89;39.74;99409.73;95646;1266;64825;-95
2023/03/09 14:29:43;;;;;;;10.10;4.20;;;;;;;16.67;40.00;99395.09;98144;1267;58821;-92
2023/03/09 14:40:00;;;;;;;9.60;4.20;;;;;;;16.48;40.25;99386.43;107172;1269;72012;-93
2023/03/09 14:43:23;;;;;;;14.70;9.30;;;;;;;16.42;40.53;99381.65;108408;1266;60747;-94
2023/03/09 14:46:53;;;;;;;31.60;23.30;;;;;;;16.33;40.65;99382.70;108378;1264;59900;31
2023/03/09 14:57:21;;;;;;;11.20;7.10;;;;;;;16.13;41.27;99384.21;107996;1266;73515;-95
2023/03/09 15:00:54;;;;;;;20.70;8.30;;;;;;;16.02;41.74;99383.42;107897;1270;59702;-94
2023/03/09 15:03:29;;;;;;;15.50;9.80;;;;;;;15.94;41.90;99378.66;107760;1270;60216;-95
2023/03/09 15:06:00;;;;;;;12.80;8.00;;;;;;;15.86;42.01;99380.14;106511;1268;74715;-95
2023/03/09 15:08:34;;;;;;;12.10;7.00;;;;;;;15.79;41.90;99378.94;106239;1272;63565;-96
2023/03/09 15:11:03;;;;;;;21.10;9.60;;;;;;;15.71;41.91;99384.66;106743;1273;71929;-96
2023/03/09 15:13:39;;;;;;;16.00;8.70;;;;;;;15.64;42.04;99385.73;106493;1270;61279;-96
2023/03/09 15:16:26;;;;;;;13.50;7.60;;;;;;;15.56;42.01;99390.18;107205;1268;60368;-94
2023/03/09 15:18:55;;;;;;;15.50;8.40;;;;;;;15.50;42.12;99388.51;106500;1270;72859;-96
2023/03/09 15:21:23;;;;;;;8.30;5.60;;;;;;;15.42;42.25;99386.13;107031;1272;64307;-96
2023/03/09 15:24:02;;;;;;;14.70;8.20;;;;;;;15.32;42.33;99385.50;106726;1272;74139;-96
2023/03/09 15:26:35;;;;;;;18.70;10.70;;;;;;;15.28;42.53;99387.84;105815;1270;61344;-96
2023/03/09 15:29:03;;;;;;;22.00;11.70;;;;;;;15.21;42.42;99387.84;107733;1269;61184;-96
2023/03/09 19:10:04;;;;;;;7.70;5.00;;;;;;;10.59;61.92;99401.25;91390;1273;59701;-95
2023/03/09 19:13:44;;;;;;;13.90;7.10;;;;;;;10.51;62.83;99397.35;107698;1276;60517;-93
2023/03/09 19:16:37;;;;;;;14.80;8.00;;;;;;;10.46;63.44;99397.21;107768;1276;73968;-95
